Time;durP1;ratioP1;P1;durP2;ratioP2;P2;SDS_P1;SDS_P2;PMS_P1;PMS_P2;Temp;Humidity;BMP_temperature;BMP_pressure;BME280_temperature;BME280_humidity;BME280_pressure;Samples;Min_cycle;Max_cycle;Signal;HPM_P1;HPM_P2
2023/01/05 00:01:01;;;;;;;15.75;2.92;;;9.90;99.90;;;;;;4979936;28;20108;-69
2023/01/05 00:03:26;;;;;;;12.00;3.53;;;9.90;99.90;;;;;;4992874;28;20407;-69
2023/01/05 00:05:52;;;;;;;19.33;2.67;;;9.90;99.90;;;;;;4972649;28;20148;-69
2023/01/05 00:08:18;;;;;;;13.90;2.43;;;9.90;99.90;;;;;;4989465;28;20042;-69
2023/01/05 00:24:28;;;;;;;24.25;2.75;;;9.80;99.90;;;;;;4981025;28;20042;-69
2023/01/05 00:26:54;;;;;;;;;;;9.80;99.90;;;;;;4962889;28;20038;-69
2023/01/05 00:29:19;;;;;;;18.52;2.97;;;9.80;99.90;;;;;;4974455;28;20382;-70
2023/01/05 00:31:45;;;;;;;12.83;2.83;;;9.80;99.90;;;;;;4993849;28;20423;-69
2023/01/05 00:34:11;;;;;;;22.07;2.73;;;9.80;99.90;;;;;;4983842;28;20050;-69
2023/01/05 00:36:38;;;;;;;16.80;2.78;;;9.80;99.90;;;;;;4970090;28;20043;-69
2023/01/05 00:39:04;;;;;;;14.82;2.88;;;9.80;99.90;;;;;;4970853;28;20058;-69
2023/01/05 00:41:32;;;;;;;18.02;2.90;;;9.80;99.90;;;;;;4979041;28;20060;-69
2023/01/05 00:43:58;;;;;;;8.93;2.27;;;9.80;99.90;;;;;;4989304;28;20129;-69
2023/01/05 00:46:26;;;;;;;20.30;2.47;;;9.80;99.90;;;;;;4969202;28;20430;-69
2023/01/05 00:48:52;;;;;;;27.55;3.67;;;9.80;99.90;;;;;;4991432;28;20523;-69
2023/01/05 00:51:17;;;;;;;12.07;2.03;;;9.80;99.90;;;;;;4975539;28;20047;-70
2023/01/05 00:53:43;;;;;;;14.43;2.67;;;9.80;99.90;;;;;;4972874;28;20038;-69
2023/01/05 00:56:08;;;;;;;12.37;2.27;;;9.80;99.90;;;;;;4961193;28;20276;-69
2023/01/05 00:58:34;;;;;;;15.57;2.40;;;9.90;99.90;;;;;;4977405;28;20070;-69
2023/01/05 01:01:00;;;;;;;17.97;3.00;;;9.90;99.90;;;;;;4992928;28;20405;-69
2023/01/05 01:03:25;;;;;;;16.70;2.10;;;9.90;99.90;;;;;;4962276;28;20050;-69
2023/01/05 01:05:58;;;;;;;15.53;2.60;;;9.90;99.90;;;;;;4973990;28;20123;-69
2023/01/05 01:08:24;;;;;;;14.20;2.63;;;9.90;99.90;;;;;;4970667;28;20116;-69
2023/01/05 01:10:49;;;;;;;21.00;3.90;;;10.00;99.90;;;;;;4993529;28;20454;-69
2023/01/05 01:13:15;;;;;;;13.45;2.33;;;9.90;99.90;;;;;;4986559;28;20081;-69
2023/01/05 01:15:41;;;;;;;13.83;1.93;;;9.90;99.90;;;;;;4983919;28;20103;-69
2023/01/05 01:18:06;;;;;;;17.00;2.73;;;9.90;99.90;;;;;;4995677;28;20049;-70
2023/01/05 01:20:32;;;;;;;15.27;2.43;;;9.90;99.90;;;;;;5006593;28;20575;-69
2023/01/05 01:22:59;;;;;;;16.07;3.07;;;9.90;99.90;;;;;;5000442;28;20120;-69
2023/01/05 01:25:26;;;;;;;28.83;3.55;;;10.00;99.90;;;;;;5005236;28;20108;-69
2023/01/05 01:27:51;;;;;;;12.05;3.15;;;9.90;99.90;;;;;;4967930;28;20504;-69
2023/01/05 01:30:18;;;;;;;7.97;2.57;;;10.00;99.90;;;;;;4979935;28;20087;-69
2023/01/05 01:32:44;;;;;;;19.63;3.10;;;10.00;99.90;;;;;;4993725;28;20177;-69
2023/01/05 01:35:10;;;;;;;15.63;2.67;;;10.00;99.90;;;;;;5003233;28;20197;-69
2023/01/05 01:37:36;;;;;;;26.15;3.08;;;10.00;99.90;;;;;;4992104;28;20542;-69
2023/01/05 01:40:02;;;;;;;19.13;3.15;;;10.00;99.90;;;;;;4975641;28;20045;-69
2023/01/05 01:42:28;;;;;;;15.50;3.38;;;10.00;99.90;;;;;;4974579;28;20179;-69
2023/01/05 01:45:04;;;;;;;19.83;3.88;;;10.00;99.90;;;;;;4972559;28;20107;-69
2023/01/05 01:48:00;;;;;;;7.60;2.30;;;10.10;99.90;;;;;;4993819;28;20331;-69
2023/01/05 01:50:41;;;;;;;14.00;2.20;;;10.00;99.90;;;;;;4966169;28;20053;-69
2023/01/05 01:53:28;;;;;;;12.95;2.95;;;10.00;99.90;;;;;;4979923;28;20403;-69
2023/01/05 01:55:56;;;;;;;16.05;2.50;;;10.00;99.90;;;;;;4977250;28;20112;-70
2023/01/05 01:58:27;;;;;;;14.60;2.72;;;10.10;99.90;;;;;;4977079;28;20054;-69
2023/01/05 02:00:53;;;;;;;13.13;3.03;;;10.00;99.90;;;;;;4985557;28;20557;-69
2023/01/05 02:03:19;;;;;;;12.02;2.95;;;10.00;99.90;;;;;;4977582;28;20042;-69
2023/01/05 02:05:44;;;;;;;18.53;4.07;;;9.90;99.90;;;;;;4976978;28;20069;-69
2023/01/05 02:08:12;;;;;;;8.40;2.30;;;9.90;99.90;;;;;;4975271;28;20138;-69
2023/01/05 02:10:59;;;;;;;18.42;3.38;;;9.90;99.90;;;;;;4995272;28;20038;-69
2023/01/05 02:13:31;;;;;;;17.42;2.53;;;9.80;99.90;;;;;;4993473;28;20047;-69
2023/01/05 02:16:08;;;;;;;13.80;2.28;;;9.90;99.90;;;;;;4980260;28;20077;-69
2023/01/05 02:19:07;;;;;;;12.95;2.80;;;9.90;99.90;;;;;;4987278;28;20105;-70
2023/01/05 02:22:00;;;;;;;16.38;2.65;;;9.90;99.90;;;;;;4998194;28;20525;-69
2023/01/05 02:24:53;;;;;;;18.60;3.63;;;9.90;99.90;;;;;;4991574;28;20039;-69
2023/01/05 02:27:48;;;;;;;13.57;2.25;;;9.80;99.90;;;;;;4970855;28;20104;-69
2023/01/05 02:30:41;;;;;;;10.55;2.58;;;9.90;99.90;;;;;;4995776;28;20050;-70
2023/01/05 02:33:40;;;;;;;14.07;2.53;;;9.90;99.90;;;;;;4972418;28;20042;-70
2023/01/05 02:36:22;;;;;;;16.80;2.55;;;9.90;99.90;;;;;;4991515;28;20514;-69
2023/01/05 02:39:11;;;;;;;10.85;1.90;;;9.90;99.90;;;;;;4990121;28;20409;-69
2023/01/05 02:42:09;;;;;;;15.48;2.25;;;9.90;99.90;;;;;;4951148;28;20499;-69
2023/01/05 02:44:35;;;;;;;16.08;3.92;;;9.90;99.90;;;;;;4981394;28;20333;-69
2023/01/05 02:47:23;;;;;;;14.10;2.70;;;9.90;99.90;;;;;;4974168;28;20106;-69
2023/01/05 02:50:13;;;;;;;11.13;2.80;;;9.90;99.90;;;;;;4961920;28;20364;-69
2023/01/05 02:52:53;;;;;;;11.65;2.13;;;9.90;99.90;;;;;;4942841;28;20046;-69
2023/01/05 02:55:27;;;;;;;9.63;2.60;;;9.80;99.90;;;;;;4975183;28;20069;-69
2023/01/05 02:58:06;;;;;;;14.45;2.15;;;9.80;99.90;;;;;;4991796;28;20419;-69
2023/01/05 03:00:39;;;;;;;18.58;2.28;;;9.80;99.90;;;;;;4972033;28;20046;-70
2023/01/05 03:03:18;;;;;;;12.77;2.90;;;9.80;99.90;;;;;;4981663;28;20121;-70
2023/01/05 03:05:51;;;;;;;22.23;2.78;;;9.70;99.90;;;;;;4992100;28;20046;-70
2023/01/05 03:08:21;;;;;;;11.23;1.88;;;9.70;99.90;;;;;;4983272;28;20475;-69
2023/01/05 03:14:07;;;;;;;20.50;2.85;;;9.60;99.90;;;;;;4988668;28;20042;-69
2023/01/05 03:16:38;;;;;;;9.38;2.20;;;9.60;99.90;;;;;;4975441;28;20042;-69
2023/01/05 03:36:20;;;;;;;15.82;2.58;;;9.70;99.90;;;;;;4969748;28;20459;-69
2023/01/05 03:38:49;;;;;;;11.73;2.55;;;9.70;99.90;;;;;;4958504;28;20042;-69
2023/01/05 03:41:17;;;;;;;15.55;3.05;;;9.60;99.90;;;;;;4968278;28;20473;-69
2023/01/05 03:43:43;;;;;;;16.90;2.28;;;9.70;99.90;;;;;;4994546;28;20054;-69
2023/01/05 03:46:16;;;;;;;22.33;2.97;;;9.70;99.90;;;;;;4951055;28;20129;-69
2023/01/05 03:48:42;;;;;;;13.48;3.03;;;9.60;99.90;;;;;;4975546;28;20129;-69
2023/01/05 03:51:08;;;;;;;15.67;2.90;;;9.70;99.90;;;;;;4974055;28;20482;-69
2023/01/05 03:53:33;;;;;;;13.97;2.50;;;9.70;99.90;;;;;;4985603;28;20283;-69
2023/01/05 03:55:59;;;;;;;8.33;1.90;;;9.60;99.90;;;;;;4988001;28;20299;-69
2023/01/05 03:58:25;;;;;;;18.77;2.90;;;9.70;99.90;;;;;;4970240;28;20042;-69
2023/01/05 04:00:51;;;;;;;12.95;2.60;;;9.70;99.90;;;;;;4987688;28;20043;-69
2023/01/05 04:03:16;;;;;;;13.87;2.43;;;9.70;99.90;;;;;;4974575;28;20436;-69
2023/01/05 04:05:42;;;;;;;12.33;3.03;;;9.70;99.90;;;;;;4974464;28;20325;-69
2023/01/05 04:08:07;;;;;;;15.17;2.33;;;9.70;99.90;;;;;;4997289;28;20043;-69
2023/01/05 04:10:33;;;;;;;11.43;2.60;;;9.70;99.90;;;;;;4976460;28;20038;-69
2023/01/05 04:12:59;;;;;;;6.97;2.20;;;9.70;99.90;;;;;;4965988;28;20535;-69
2023/01/05 04:15:24;;;;;;;17.80;2.80;;;9.70;99.90;;;;;;4993053;28;20169;-69
2023/01/05 04:17:50;;;;;;;20.20;2.50;;;9.80;99.90;;;;;;4997418;28;20487;-69
2023/01/05 04:20:16;;;;;;;16.73;2.63;;;9.70;99.90;;;;;;4968673;28;20064;-69
2023/01/05 04:22:41;;;;;;;14.55;2.88;;;9.70;99.90;;;;;;4972758;28;20504;-69
2023/01/05 04:25:08;;;;;;;20.83;2.73;;;9.70;99.90;;;;;;5000307;28;20046;-69
2023/01/05 04:27:33;;;;;;;13.77;1.75;;;9.70;99.90;;;;;;4992741;28;20177;-70
2023/01/05 04:29:59;;;;;;;19.23;2.63;;;9.80;99.90;;;;;;4987850;28;20120;-70
2023/01/05 04:32:25;;;;;;;16.60;2.53;;;9.70;99.90;;;;;;4977211;28;20502;-69
2023/01/05 04:34:51;;;;;;;14.88;3.10;;;9.60;99.90;;;;;;4977718;28;20046;-69
2023/01/05 04:37:16;;;;;;;14.17;2.10;;;9.70;99.90;;;;;;4977091;28;20158;-69
2023/01/05 04:39:42;;;;;;;13.07;2.17;;;9.70;99.90;;;;;;4985015;28;20397;-69
2023/01/05 04:42:07;;;;;;;20.40;2.77;;;9.70;99.90;;;;;;5000111;28;20078;-69
2023/01/05 04:44:33;;;;;;;20.43;3.27;;;9.70;99.90;;;;;;4984554;28;20035;-69
2023/01/05 04:46:59;;;;;;;13.13;2.67;;;9.70;99.90;;;;;;4997491;28;20044;-69
2023/01/05 04:49:24;;;;;;;12.63;2.53;;;9.70;99.90;;;;;;4972985;28;20485;-69
2023/01/05 04:51:50;;;;;;;21.07;3.20;;;9.70;99.90;;;;;;4970076;28;20105;-69
2023/01/05 04:54:16;;;;;;;12.90;2.30;;;9.80;99.90;;;;;;4999148;28;20085;-70
2023/01/05 04:56:41;;;;;;;9.50;2.20;;;9.80;99.90;;;;;;4989048;28;20081;-69
2023/01/05 04:59:07;;;;;;;11.50;2.07;;;9.80;99.90;;;;;;4991308;28;20318;-69
2023/01/05 05:01:33;;;;;;;10.68;1.77;;;9.80;99.90;;;;;;4988164;28;20281;-70
2023/01/05 05:03:59;;;;;;;24.47;3.30;;;9.80;99.90;;;;;;4995629;28;20325;-69
2023/01/05 05:06:25;;;;;;;9.43;1.90;;;9.80;99.90;;;;;;4997935;28;20049;-69
2023/01/05 05:08:50;;;;;;;15.07;2.42;;;9.80;99.90;;;;;;4984383;28;20099;-69
2023/01/05 05:11:16;;;;;;;17.55;3.08;;;9.90;99.90;;;;;;4972630;28;20154;-69
2023/01/05 05:13:42;;;;;;;13.83;2.23;;;9.90;99.90;;;;;;4983263;28;20317;-69
2023/01/05 05:16:07;;;;;;;12.30;2.30;;;9.90;99.90;;;;;;4954655;28;20352;-69
2023/01/05 05:18:33;;;;;;;18.73;3.13;;;9.90;99.90;;;;;;4990610;28;20125;-69
2023/01/05 05:20:59;;;;;;;15.27;2.67;;;9.90;99.90;;;;;;4979058;28;20072;-69
2023/01/05 05:23:25;;;;;;;15.43;2.27;;;10.00;99.90;;;;;;4984531;28;20097;-69
2023/01/05 05:25:51;;;;;;;11.07;2.75;;;9.90;99.90;;;;;;4994310;28;20050;-69
2023/01/05 05:28:18;;;;;;;9.40;2.30;;;9.90;99.90;;;;;;4999193;28;20046;-69
2023/01/05 05:30:46;;;;;;;18.63;2.95;;;9.90;99.90;;;;;;4996128;28;20038;-70
2023/01/05 05:33:12;;;;;;;17.40;3.00;;;10.00;99.90;;;;;;5003254;28;20046;-69
2023/01/05 05:35:37;;;;;;;10.00;1.87;;;9.90;99.90;;;;;;4977763;28;20041;-70
2023/01/05 05:38:03;;;;;;;16.33;2.50;;;9.90;99.90;;;;;;4985938;28;20560;-69
2023/01/05 05:40:29;;;;;;;9.97;2.40;;;9.90;99.90;;;;;;4995067;28;20120;-69
2023/01/05 05:42:55;;;;;;;14.03;3.10;;;10.00;99.90;;;;;;4986658;28;20042;-69
2023/01/05 05:45:20;;;;;;;14.05;2.22;;;9.90;99.90;;;;;;4979111;28;20104;-69
2023/01/05 05:47:46;;;;;;;8.00;1.53;;;9.90;99.90;;;;;;4998980;28;20085;-69
2023/01/05 05:50:12;;;;;;;19.73;3.30;;;10.00;99.90;;;;;;4991350;28;20038;-69
2023/01/05 05:52:37;;;;;;;6.78;2.13;;;9.90;99.90;;;;;;4980400;28;20041;-69
2023/01/05 05:55:03;;;;;;;20.90;2.73;;;9.90;99.90;;;;;;4968277;28;20096;-69
2023/01/05 05:57:29;;;;;;;15.13;2.08;;;9.90;99.90;;;;;;4989265;28;20408;-69
2023/01/05 05:59:55;;;;;;;11.33;2.50;;;9.90;99.90;;;;;;4991344;28;20309;-69
2023/01/05 06:02:20;;;;;;;19.00;2.53;;;9.90;99.90;;;;;;4991008;28;20061;-69
2023/01/05 06:04:46;;;;;;;12.73;2.10;;;9.90;99.90;;;;;;4971795;28;20130;-68
2023/01/05 06:07:11;;;;;;;13.77;2.53;;;9.90;99.90;;;;;;4956377;28;20133;-69
2023/01/05 06:09:37;;;;;;;14.80;2.63;;;9.90;99.90;;;;;;4997178;28;20034;-69
2023/01/05 06:12:03;;;;;;;14.27;2.43;;;9.90;99.90;;;;;;4981312;28;20041;-69
2023/01/05 06:14:29;;;;;;;15.85;2.40;;;9.90;99.90;;;;;;4972052;28;20049;-69
2023/01/05 06:16:54;;;;;;;15.07;2.70;;;9.90;99.90;;;;;;5006017;28;20049;-68
2023/01/05 06:19:20;;;;;;;11.30;2.20;;;9.80;99.90;;;;;;4997153;28;20041;-68
2023/01/05 06:21:45;;;;;;;14.40;2.57;;;9.90;99.90;;;;;;4980792;28;20165;-69
2023/01/05 06:24:11;;;;;;;15.40;2.87;;;9.90;99.90;;;;;;4971392;28;20042;-69
2023/01/05 06:26:36;;;;;;;10.27;2.00;;;9.80;99.90;;;;;;4972474;28;20058;-69
2023/01/05 06:29:02;;;;;;;10.70;1.90;;;9.90;99.90;;;;;;4974009;28;20185;-69
2023/01/05 06:31:28;;;;;;;12.20;2.13;;;9.80;99.90;;;;;;4977354;28;20050;-69
2023/01/05 06:33:53;;;;;;;16.40;3.13;;;9.80;99.90;;;;;;4990003;28;20041;-68
2023/01/05 06:36:19;;;;;;;14.70;2.00;;;9.80;99.90;;;;;;4997226;28;20093;-69
2023/01/05 06:38:45;;;;;;;15.17;2.67;;;9.80;99.90;;;;;;4978681;28;20555;-69
2023/01/05 06:41:10;;;;;;;14.77;2.20;;;9.80;99.90;;;;;;4961591;28;20310;-69
2023/01/05 06:43:36;;;;;;;16.80;2.87;;;9.80;99.90;;;;;;4989235;28;20050;-69
2023/01/05 06:46:01;;;;;;;16.07;2.60;;;9.80;99.90;;;;;;4976804;28;20145;-69
2023/01/05 06:48:27;;;;;;;14.53;2.10;;;9.80;99.90;;;;;;4973478;28;20509;-69
2023/01/05 06:50:53;;;;;;;11.40;1.60;;;9.80;99.90;;;;;;4987000;28;20566;-69
2023/01/05 06:53:18;;;;;;;18.67;3.30;;;9.80;99.90;;;;;;4982084;28;20027;-69
2023/01/05 06:55:44;;;;;;;11.07;2.20;;;9.80;99.90;;;;;;4977956;28;20038;-69
2023/01/05 06:58:10;;;;;;;13.95;2.72;;;9.80;99.90;;;;;;4975399;28;20093;-69
2023/01/05 07:00:36;;;;;;;6.90;1.60;;;9.80;99.90;;;;;;4972778;28;20432;-68
2023/01/05 07:03:02;;;;;;;10.85;2.10;;;9.80;99.90;;;;;;4984092;28;20069;-69
2023/01/05 07:05:27;;;;;;;10.25;2.50;;;9.90;99.90;;;;;;4982472;28;20046;-69
2023/01/05 07:07:53;;;;;;;9.57;1.80;;;9.80;99.90;;;;;;4987910;28;20089;-69
2023/01/05 07:10:19;;;;;;;11.93;1.67;;;9.80;99.90;;;;;;4990724;28;20284;-69
2023/01/05 07:12:44;;;;;;;15.77;2.30;;;9.80;99.90;;;;;;4978813;28;20414;-69
2023/01/05 07:15:10;;;;;;;11.10;2.03;;;9.80;99.90;;;;;;4969521;28;20038;-69
2023/01/05 07:17:36;;;;;;;12.10;2.22;;;9.80;99.90;;;;;;4995008;28;20045;-69
2023/01/05 07:20:03;;;;;;;11.67;2.97;;;9.70;99.90;;;;;;4976107;28;20050;-69
2023/01/05 07:22:29;;;;;;;9.50;2.25;;;9.70;99.90;;;;;;5007369;28;20049;-69
2023/01/05 07:24:57;;;;;;;15.32;2.13;;;9.70;99.90;;;;;;4998753;28;20535;-69
2023/01/05 07:27:23;;;;;;;15.98;2.50;;;9.60;99.90;;;;;;4979999;28;20055;-69
2023/01/05 07:29:49;;;;;;;10.97;2.43;;;9.70;99.90;;;;;;4996210;28;20045;-69
2023/01/05 07:32:14;;;;;;;11.97;1.87;;;9.60;99.90;;;;;;4995744;28;20045;-69
2023/01/05 07:34:40;;;;;;;8.18;1.67;;;9.70;99.90;;;;;;4981013;28;20042;-69
2023/01/05 07:37:06;;;;;;;17.13;2.57;;;9.70;99.90;;;;;;4986864;28;20050;-69
2023/01/05 07:39:31;;;;;;;7.47;1.67;;;9.70;99.90;;;;;;4966552;28;20066;-68
2023/01/05 07:41:57;;;;;;;12.47;2.17;;;9.60;99.90;;;;;;4983972;28;20073;-69
2023/01/05 07:44:23;;;;;;;11.52;1.85;;;9.60;99.90;;;;;;4992294;28;20030;-69
2023/01/05 07:46:48;;;;;;;13.30;2.40;;;9.60;99.90;;;;;;4977608;28;20052;-69
2023/01/05 07:49:14;;;;;;;10.07;3.00;;;9.60;99.90;;;;;;4997165;28;20304;-69
2023/01/05 07:51:40;;;;;;;16.40;5.30;;;9.60;99.90;;;;;;4971954;28;20119;-69
2023/01/05 07:54:06;;;;;;;14.38;3.25;;;9.60;99.90;;;;;;4994220;28;20323;-69
2023/01/05 07:56:31;;;;;;;14.67;3.50;;;9.60;99.90;;;;;;4973678;28;20048;-69
2023/01/05 07:58:58;;;;;;;12.80;2.67;;;9.60;99.90;;;;;;4988870;28;20299;-69
2023/01/05 08:01:24;;;;;;;13.63;2.65;;;9.60;99.90;;;;;;4971103;28;20292;-69
2023/01/05 08:03:49;;;;;;;8.10;2.67;;;9.60;99.90;;;;;;5005796;28;20061;-69
2023/01/05 08:06:17;;;;;;;8.00;2.70;;;9.60;99.90;;;;;;4989287;28;20088;-70
2023/01/05 08:08:44;;;;;;;9.85;3.25;;;9.60;99.90;;;;;;4964642;28;20447;-69
2023/01/05 08:11:14;;;;;;;15.98;3.28;;;9.70;99.90;;;;;;4966033;28;20070;-69
2023/01/05 08:13:59;;;;;;;15.77;2.70;;;9.70;99.90;;;;;;4958433;28;20155;-69
2023/01/05 08:16:29;;;;;;;6.90;2.00;;;9.70;99.90;;;;;;4972770;28;20048;-69
2023/01/05 08:18:56;;;;;;;10.40;2.45;;;9.70;99.90;;;;;;4987047;28;20463;-69
2023/01/05 08:21:21;;;;;;;14.25;2.58;;;9.70;99.90;;;;;;4990001;28;20500;-69
2023/01/05 08:23:49;;;;;;;15.27;2.10;;;9.70;99.90;;;;;;4995863;28;20141;-69
2023/01/05 08:26:17;;;;;;;13.90;2.35;;;9.70;99.90;;;;;;4992903;28;20050;-69
2023/01/05 08:28:43;;;;;;;17.30;2.25;;;9.80;99.90;;;;;;4968573;28;20078;-69
2023/01/05 08:31:15;;;;;;;13.43;2.42;;;9.70;99.90;;;;;;4990940;28;20062;-69
2023/01/05 08:33:41;;;;;;;13.30;2.38;;;9.70;99.90;;;;;;4994026;28;20464;-70
2023/01/05 08:36:14;;;;;;;21.52;4.32;;;9.70;99.90;;;;;;4965841;28;20056;-69
2023/01/05 08:38:46;;;;;;;20.65;3.38;;;9.70;99.90;;;;;;4980569;28;20233;-69
2023/01/05 08:41:24;;;;;;;10.90;2.65;;;9.70;99.90;;;;;;4985149;28;20053;-69
2023/01/05 08:43:51;;;;;;;10.88;3.28;;;9.70;99.90;;;;;;4984843;28;20134;-68
2023/01/05 08:46:17;;;;;;;16.10;3.20;;;9.70;99.90;;;;;;4991741;28;20045;-69
2023/01/05 08:48:46;;;;;;;15.70;3.03;;;9.70;99.90;;;;;;4966776;28;20050;-69
2023/01/05 08:51:11;;;;;;;9.55;2.75;;;9.70;99.90;;;;;;4968254;28;20088;-69
2023/01/05 08:53:37;;;;;;;16.97;3.23;;;9.80;99.90;;;;;;4985177;28;20353;-69
2023/01/05 08:56:03;;;;;;;13.17;2.90;;;9.80;99.90;;;;;;4983745;28;20504;-69
2023/01/05 08:58:28;;;;;;;12.75;2.25;;;9.80;99.90;;;;;;4969679;28;20046;-68
2023/01/05 09:00:54;;;;;;;11.83;2.17;;;9.80;99.90;;;;;;4988693;28;20046;-69
2023/01/05 09:03:20;;;;;;;8.07;2.67;;;9.80;99.90;;;;;;4989787;28;20046;-69
2023/01/05 09:05:45;;;;;;;7.87;1.80;;;9.80;99.90;;;;;;4956403;28;20097;-69
2023/01/05 09:08:11;;;;;;;12.77;2.30;;;9.80;99.90;;;;;;4967159;28;20039;-69
2023/01/05 09:10:37;;;;;;;9.30;2.67;;;9.80;99.90;;;;;;4965893;28;20070;-69
2023/01/05 09:13:02;;;;;;;17.90;2.23;;;9.80;99.90;;;;;;4984588;28;20396;-69
2023/01/05 09:15:28;;;;;;;13.67;2.40;;;9.80;99.90;;;;;;4969781;28;20042;-69
2023/01/05 09:17:54;;;;;;;13.00;2.92;;;9.80;99.90;;;;;;4954230;28;20049;-68
2023/01/05 09:20:20;;;;;;;14.00;2.60;;;9.80;99.90;;;;;;4964535;28;20396;-68
2023/01/05 09:22:45;;;;;;;12.10;3.07;;;9.90;99.90;;;;;;4964885;28;20043;-68
2023/01/05 09:25:11;;;;;;;14.33;2.17;;;9.90;99.90;;;;;;4991287;28;20113;-68
2023/01/05 09:27:36;;;;;;;5.93;1.67;;;9.90;99.90;;;;;;4969522;28;20043;-68
2023/01/05 09:30:06;;;;;;;11.60;1.80;;;9.90;99.90;;;;;;4969526;28;20050;-68
2023/01/05 09:32:32;;;;;;;10.93;1.80;;;9.90;99.90;;;;;;4994603;28;20298;-68
2023/01/05 09:34:57;;;;;;;12.97;2.03;;;9.90;99.90;;;;;;4969679;28;20489;-69
2023/01/05 09:37:23;;;;;;;15.00;2.60;;;9.90;99.90;;;;;;4985651;28;20124;-71
2023/01/05 09:39:49;;;;;;;15.27;2.07;;;9.80;99.90;;;;;;4982420;28;20046;-70
2023/01/05 09:42:19;;;;;;;9.85;1.80;;;9.90;99.90;;;;;;4985357;28;20058;-68
2023/01/05 09:44:52;;;;;;;10.30;2.08;;;9.90;99.90;;;;;;4981349;28;20403;-70
2023/01/05 09:47:37;;;;;;;9.98;2.45;;;9.90;99.90;;;;;;4968166;28;20622;-69
2023/01/05 09:50:07;;;;;;;12.23;1.95;;;9.90;99.90;;;;;;4964529;28;20046;-68
2023/01/05 09:52:33;;;;;;;11.63;2.03;;;10.00;99.90;;;;;;4967017;28;20117;-69
2023/01/05 09:54:59;;;;;;;13.48;2.17;;;10.00;99.90;;;;;;4986806;28;20578;-69
2023/01/05 09:57:27;;;;;;;9.60;2.17;;;10.00;99.90;;;;;;4983329;28;20054;-69
2023/01/05 09:59:57;;;;;;;12.10;2.03;;;10.00;99.90;;;;;;4975817;28;20250;-69
2023/01/05 10:02:45;;;;;;;9.07;2.55;;;10.00;99.90;;;;;;4992572;28;20522;-69
2023/01/05 10:05:12;;;;;;;15.10;1.77;;;10.00;99.90;;;;;;4973718;28;20054;-69
2023/01/05 10:07:57;;;;;;;8.27;1.45;;;10.00;99.90;;;;;;4988405;28;20412;-69
2023/01/05 10:10:43;;;;;;;8.20;2.38;;;10.10;99.90;;;;;;4975432;28;20126;-69
2023/01/05 10:13:25;;;;;;;22.02;2.90;;;10.10;99.90;;;;;;4966551;28;20058;-69
2023/01/05 10:15:53;;;;;;;13.77;2.15;;;10.10;99.90;;;;;;4953094;28;20037;-69
2023/01/05 10:18:28;;;;;;;13.77;2.90;;;10.10;99.90;;;;;;4981673;28;20043;-69
2023/01/05 10:21:12;;;;;;;12.27;2.40;;;10.20;99.90;;;;;;4975223;28;20050;-69
2023/01/05 10:24:06;;;;;;;13.98;2.90;;;10.10;99.90;;;;;;4968385;28;20053;-69
2023/01/05 10:26:46;;;;;;;7.15;1.63;;;10.20;99.90;;;;;;4971703;28;20046;-69
2023/01/05 10:29:15;;;;;;;17.20;3.25;;;10.20;99.90;;;;;;4966646;28;20124;-70
2023/01/05 10:32:11;;;;;;;19.13;2.95;;;10.20;99.90;;;;;;4980246;28;20049;-69
2023/01/05 10:34:52;;;;;;;14.68;2.47;;;10.20;99.90;;;;;;4990031;28;20396;-69
2023/01/05 10:37:40;;;;;;;15.25;2.65;;;10.20;99.90;;;;;;4987897;28;20077;-69
2023/01/05 10:40:36;;;;;;;8.70;2.35;;;10.20;99.90;;;;;;4962352;28;20053;-69
2023/01/05 10:43:27;;;;;;;9.52;2.17;;;10.20;99.90;;;;;;4963830;28;20058;-69
2023/01/05 10:45:52;;;;;;;6.28;1.52;;;10.20;99.90;;;;;;4975196;28;20057;-69
2023/01/05 10:48:24;;;;;;;8.03;1.60;;;10.20;99.90;;;;;;4965789;28;20046;-69
2023/01/05 10:50:53;;;;;;;8.05;2.10;;;10.30;99.90;;;;;;4960971;28;20078;-69
2023/01/05 10:53:25;;;;;;;12.23;2.10;;;10.30;99.90;;;;;;4984113;28;20043;-69
2023/01/05 10:56:04;;;;;;;10.20;2.22;;;10.30;99.90;;;;;;4967980;28;20054;-69
2023/01/05 10:58:38;;;;;;;6.20;1.40;;;10.40;99.90;;;;;;4967525;28;20406;-69
2023/01/05 11:01:18;;;;;;;8.38;1.90;;;10.40;99.90;;;;;;4964324;28;20042;-69
2023/01/05 11:03:47;;;;;;;13.15;2.15;;;10.40;99.90;;;;;;4971969;28;20209;-69
2023/01/05 11:06:26;;;;;;;10.52;1.80;;;10.40;99.90;;;;;;4982800;28;20160;-69
2023/01/05 11:08:53;;;;;;;13.07;2.30;;;10.40;99.90;;;;;;4981245;28;20133;-69
2023/01/05 11:11:24;;;;;;;19.50;2.50;;;10.40;99.90;;;;;;4980786;28;20050;-69
2023/01/05 11:13:53;;;;;;;11.77;2.25;;;10.40;99.90;;;;;;4963860;28;20121;-70
2023/01/05 11:16:22;;;;;;;10.40;1.85;;;10.30;99.90;;;;;;4991733;28;20053;-69
2023/01/05 11:18:55;;;;;;;16.95;2.80;;;10.30;99.90;;;;;;4962795;28;20265;-69
2023/01/05 11:21:42;;;;;;;13.88;3.15;;;10.30;99.90;;;;;;4966937;28;20050;-69
2023/01/05 11:24:25;;;;;;;17.05;2.83;;;10.40;99.90;;;;;;4959090;28;20046;-69
2023/01/05 11:26:57;;;;;;;14.05;3.25;;;10.40;99.90;;;;;;4970860;28;20080;-69
2023/01/05 11:29:23;;;;;;;11.88;2.83;;;10.40;99.90;;;;;;4967058;28;20050;-68
2023/01/05 11:31:51;;;;;;;9.43;2.70;;;10.40;99.90;;;;;;4988819;28;20103;-69
2023/01/05 11:34:38;;;;;;;14.70;2.67;;;10.50;99.90;;;;;;4979289;28;20104;-69
2023/01/05 11:37:26;;;;;;;13.80;2.28;;;10.50;99.90;;;;;;4977561;28;20461;-69
2023/01/05 11:40:00;;;;;;;10.35;2.20;;;10.50;99.90;;;;;;4998127;28;20046;-69
2023/01/05 11:42:26;;;;;;;14.57;2.25;;;10.50;99.90;;;;;;4977362;28;20042;-69
2023/01/05 11:44:58;;;;;;;8.37;2.07;;;10.50;99.90;;;;;;5034400;22;20124;-72
2023/01/05 11:47:42;;;;;;;8.93;2.13;;;10.50;99.90;;;;;;5022962;28;20055;-72
2023/01/05 11:50:14;;;;;;;8.23;2.13;;;10.50;99.90;;;;;;5016300;28;20056;-72
2023/01/05 11:52:42;;;;;;;11.75;2.88;;;10.60;99.90;;;;;;5004699;28;20513;-72
2023/01/05 11:55:22;;;;;;;14.23;2.28;;;10.60;99.90;;;;;;5019180;28;20038;-74
2023/01/05 11:57:52;;;;;;;13.93;2.50;;;10.60;99.90;;;;;;4998155;28;20128;-73
2023/01/05 12:00:33;;;;;;;11.98;1.92;;;10.60;99.90;;;;;;5004163;28;20467;-73
2023/01/05 12:03:28;;;;;;;9.05;2.00;;;10.60;99.90;;;;;;4998144;28;20128;-73
2023/01/05 12:06:00;;;;;;;14.73;2.78;;;10.60;99.90;;;;;;4998468;28;20038;-73
2023/01/05 12:08:46;;;;;;;16.65;3.03;;;10.60;99.90;;;;;;5002332;28;20053;-72
2023/01/05 12:11:20;;;;;;;13.30;2.53;;;10.60;99.90;;;;;;4974633;28;20050;-72
2023/01/05 12:14:04;;;;;;;8.80;3.00;;;10.60;99.90;;;;;;4997787;28;20107;-73
2023/01/05 12:17:06;;;;;;;12.68;2.85;;;10.50;99.90;;;;;;5005271;28;20041;-72
2023/01/05 12:19:43;;;;;;;13.32;3.60;;;10.60;99.90;;;;;;4989003;28;20049;-73
2023/01/05 12:22:20;;;;;;;15.75;3.40;;;10.60;99.90;;;;;;5016450;28;20068;-72
2023/01/05 12:25:07;;;;;;;9.95;2.00;;;10.50;99.90;;;;;;5023459;28;20064;-73
2023/01/05 12:27:56;;;;;;;14.18;2.53;;;10.60;99.90;;;;;;5019904;28;20057;-73
2023/01/05 12:30:22;;;;;;;12.18;2.70;;;10.50;99.90;;;;;;4995048;28;20080;-73
2023/01/05 12:33:11;;;;;;;9.70;2.72;;;10.50;99.90;;;;;;4981946;28;20096;-73
2023/01/05 12:35:57;;;;;;;13.57;2.15;;;10.50;99.90;;;;;;5003353;28;20045;-73
2023/01/05 12:38:32;;;;;;;15.32;2.45;;;10.50;99.90;;;;;;5007286;28;20080;-72
2023/01/05 12:41:15;;;;;;;8.45;2.25;;;10.50;99.90;;;;;;4979165;28;20447;-73
2023/01/05 12:44:02;;;;;;;15.00;2.35;;;10.50;99.90;;;;;;5005994;28;20107;-74
2023/01/05 12:46:44;;;;;;;14.95;3.55;;;10.50;99.90;;;;;;5023799;28;20049;-74
2023/01/05 12:49:16;;;;;;;17.17;3.08;;;10.50;99.90;;;;;;4998386;28;20450;-73
2023/01/05 12:51:49;;;;;;;8.70;3.30;;;10.50;99.90;;;;;;5003168;28;20316;-74
2023/01/05 12:54:28;;;;;;;14.98;2.63;;;10.50;99.90;;;;;;5007764;28;20048;-73
2023/01/05 12:57:02;;;;;;;13.50;2.50;;;10.50;99.90;;;;;;5020283;28;20575;-73
2023/01/05 12:59:38;;;;;;;12.30;2.70;;;10.50;99.90;;;;;;5002797;28;20057;-74
2023/01/05 13:02:06;;;;;;;6.72;2.22;;;10.50;99.90;;;;;;5001346;28;20045;-74
2023/01/05 13:04:50;;;;;;;8.55;2.17;;;10.50;99.90;;;;;;5017245;28;20046;-74
2023/01/05 13:07:41;;;;;;;14.48;1.92;;;10.50;99.90;;;;;;5018132;28;20045;-73
2023/01/05 13:10:19;;;;;;;9.70;3.60;;;10.50;99.90;;;;;;4988975;28;20045;-73
2023/01/05 13:12:49;;;;;;;12.80;2.22;;;10.60;99.90;;;;;;5008588;28;20121;-74
2023/01/05 13:15:33;;;;;;;14.27;2.95;;;10.50;99.90;;;;;;5004761;28;20117;-74
2023/01/05 13:18:02;;;;;;;16.30;3.28;;;10.60;99.90;;;;;;5002956;28;20140;-74
2023/01/05 13:20:45;;;;;;;18.95;2.90;;;10.50;99.90;;;;;;5008820;28;20060;-73
2023/01/05 13:23:19;;;;;;;12.27;2.97;;;10.50;99.90;;;;;;5006034;28;20435;-74
2023/01/05 13:25:52;;;;;;;10.55;2.38;;;10.50;99.90;;;;;;5007833;28;20188;-73
2023/01/05 13:28:20;;;;;;;13.30;2.92;;;10.50;99.90;;;;;;5008706;28;20133;-73
2023/01/05 13:31:04;;;;;;;10.05;3.30;;;10.50;99.90;;;;;;5016054;28;20147;-74
2023/01/05 13:33:45;;;;;;;15.23;2.40;;;10.50;99.90;;;;;;5024074;28;20044;-73
2023/01/05 13:36:51;;;;;;;9.55;2.92;;;10.50;99.90;;;;;;5011800;28;20042;-73
2023/01/05 13:39:38;;;;;;;12.73;2.85;;;10.50;99.90;;;;;;4996799;28;20470;-72